Nyssa, OR (97913)

5:06 AM MST on February 19, 2017 (GMT -0700)
Trail Ridge Subdivision | | Change Station

Elev 2247 ft 43.79 °N, 116.95 °W | Updated 29 seconds ago

Overcast
Overcast
34.5 °F
Feels Like 34 °F
N
0.0
Wind Variable Wind from SE

Today
High -- | Low -- °F
--% Chance of Precip.
Yesterday
High -- | Low -- °F
Precip. -- in
Pressure 29.61 in
Visibility 5.0 miles
Clouds Scattered Clouds 4000 ft
Mostly Cloudy 6000 ft
Mostly Cloudy 8000 ft
Windchill 34 °F
Dew Point 34 °F
Humidity 99%
Rainfall 0.02 in
Snow Depth Not available.
7:40 AM 6:23 PM
Last Quarter, 44% visible
METAR KONO 191153Z AUTO 00000KT 5SM BR SCT040 BKN060 BKN080 01/01 A2956 RMK AO2 RAE25UPB23E24 SLP025 P0001 60003 70034 T00110006 10011 20000 51010
Pressure 29.61 in
Visibility 5.0 miles
Clouds Scattered Clouds 4000 ft
Mostly Cloudy 6000 ft
Mostly Cloudy 8000 ft
Windchill 34 °F
Dew Point 34 °F
Humidity 99%
Rainfall 0.02 in
Snow Depth Not available.
7:40 AM 6:23 PM
Last Quarter, 44% visible
METAR KONO 191153Z AUTO 00000KT 5SM BR SCT040 BKN060 BKN080 01/01 A2956 RMK AO2 RAE25UPB23E24 SLP025 P0001 60003 70034 T00110006 10011 20000 51010

Get Your Daily Forecast Email!

Thanks for signing up!

Be on the lookout for a verification email in your inbox.

You'll start receiving the daily forecast at 8 AM.

×

10-Day Weather Forecast

Almanac

Astronomy

Feb. 19, 2017 Rise Set
Actual Time
Civil Twilight
Nautical Twilight
Astronomical Twilight
Moon
Length of Visible Light
Length of Day
Tomorrow will be .
, % of the Moon is Illuminated

Today's Extremes

State Highs State Lows

Community

WunderPhotos

Upload Photos

1,962,540 photos uploaded!

WunderBlog® & News

Nearby

Air Quality

  Air Quality AQ Index Pollutant
Not available.

Snow Depth

Station Depth Elevation

Earthquake Activity

City Distance Mag. Time & Date
Minimum magnitude displayed is 2.5.

Coastal Water Temperatures

Place Temperature

Stations

Nearby Weather Stations

Station Location Temp. Windchill Dew Point Humidity Wind Precip. Elev Updated Type
                   

Watches & Warnings

There are currently no watches in effect.